Time;durP1;ratioP1;P1;durP2;ratioP2;P2;SDS_P1;SDS_P2;PMS_P1;PMS_P2;Temp;Humidity;BMP_temperature;BMP_pressure;BME280_temperature;BME280_humidity;BME280_pressure;Samples;Min_cycle;Max_cycle;Signal;HPM_P1;HPM_P2
2022/04/16 00:03:21;;;;;;;8.53;7.37;;;;;;;;;;6063905;29;20233;-76
2022/04/16 00:06:42;;;;;;;10.50;7.07;;;;;;;;;;6061527;29;20256;-75
2022/04/16 00:10:03;;;;;;;10.07;8.27;;;;;;;;;;6071534;29;20232;-76
2022/04/16 00:13:24;;;;;;;7.83;7.00;;;;;;;;;;6060884;29;20609;-76
2022/04/16 00:16:46;;;;;;;9.63;8.60;;;;;;;;;;6070733;29;20225;-76
2022/04/16 00:20:10;;;;;;;9.77;8.37;;;;;;;;;;6069019;29;20628;-76
2022/04/16 00:23:30;;;;;;;9.23;7.53;;;;;;;;;;6063630;29;20256;-75
2022/04/16 00:26:51;;;;;;;7.60;6.83;;;;;;;;;;6067155;29;20221;-75
2022/04/16 00:30:12;;;;;;;7.40;6.63;;;;;;;;;;6073098;29;20324;-76
2022/04/16 00:33:34;;;;;;;7.83;6.63;;;;;;;;;;6066030;29;20690;-75
2022/04/16 00:36:54;;;;;;;7.00;6.07;;;;;;;;;;6063802;29;20515;-75
2022/04/16 00:40:15;;;;;;;9.33;7.27;;;;;;;;;;6068277;29;20613;-75
2022/04/16 00:43:35;;;;;;;7.23;6.27;;;;;;;;;;6063756;29;20609;-75
2022/04/16 00:46:58;;;;;;;6.67;6.03;;;;;;;;;;6065373;29;20234;-75
2022/04/16 00:50:22;;;;;;;5.67;5.00;;;;;;;;;;6081914;29;20237;-76
2022/04/16 00:53:42;;;;;;;7.37;5.57;;;;;;;;;;6058376;29;20612;-75
2022/04/16 00:57:04;;;;;;;7.60;6.27;;;;;;;;;;6064688;29;20320;-76
2022/04/16 01:00:24;;;;;;;6.67;5.30;;;;;;;;;;6068333;29;20504;-75
2022/04/16 01:03:45;;;;;;;7.20;5.70;;;;;;;;;;6066009;29;20237;-76
2022/04/16 01:07:07;;;;;;;5.33;4.80;;;;;;;;;;6063172;29;20310;-76
2022/04/16 01:10:31;;;;;;;6.27;5.07;;;;;;;;;;6070202;29;20245;-76
2022/04/16 01:13:51;;;;;;;5.57;5.07;;;;;;;;;;6059534;29;20494;-76
2022/04/16 01:17:12;;;;;;;6.37;5.77;;;;;;;;;;6075834;29;20236;-76
2022/04/16 01:20:34;;;;;;;5.90;5.27;;;;;;;;;;6086505;29;20366;-77
2022/04/16 01:23:56;;;;;;;5.60;5.00;;;;;;;;;;6062574;29;20609;-75
2022/04/16 01:27:17;;;;;;;5.90;5.37;;;;;;;;;;6067671;29;20536;-76
2022/04/16 01:30:38;;;;;;;6.73;5.60;;;;;;;;;;6063922;29;20261;-76
2022/04/16 01:33:58;;;;;;;6.33;5.23;;;;;;;;;;6065297;29;20229;-75
2022/04/16 01:37:19;;;;;;;5.83;4.97;;;;;;;;;;6090428;29;20236;-76
2022/04/16 01:40:41;;;;;;;5.43;4.90;;;;;;;;;;6069709;29;20260;-75
2022/04/16 01:44:01;;;;;;;5.87;5.30;;;;;;;;;;6065009;29;20244;-76
2022/04/16 01:47:25;;;;;;;7.23;5.03;;;;;;;;;;6063995;29;20274;-76
2022/04/16 01:50:47;;;;;;;5.87;5.30;;;;;;;;;;6065642;29;20237;-76
2022/04/16 01:54:08;;;;;;;4.73;4.33;;;;;;;;;;6066320;29;20229;-76
2022/04/16 01:57:30;;;;;;;6.00;5.07;;;;;;;;;;6063750;29;20233;-76
2022/04/16 02:00:51;;;;;;;4.43;4.03;;;;;;;;;;6068980;29;20242;-76
2022/04/16 02:04:11;;;;;;;6.33;4.87;;;;;;;;;;6064334;29;20601;-76
2022/04/16 02:07:32;;;;;;;4.10;3.60;;;;;;;;;;6062330;29;20273;-76
2022/04/16 02:10:52;;;;;;;7.97;4.57;;;;;;;;;;6065838;29;20226;-76
2022/04/16 02:14:14;;;;;;;4.57;4.17;;;;;;;;;;6064054;29;20241;-75
2022/04/16 02:17:35;;;;;;;5.53;3.90;;;;;;;;;;6070476;29;20237;-76
2022/04/16 02:20:55;;;;;;;4.73;4.30;;;;;;;;;;6081362;29;20238;-76
2022/04/16 02:24:17;;;;;;;7.50;4.30;;;;;;;;;;6068221;29;20522;-76
2022/04/16 02:27:37;;;;;;;4.63;4.10;;;;;;;;;;6067202;29;20241;-76
2022/04/16 02:31:00;;;;;;;6.37;4.07;;;;;;;;;;6068870;29;20225;-76
2022/04/16 02:34:20;;;;;;;5.13;3.83;;;;;;;;;;6067209;29;20225;-76
2022/04/16 02:37:41;;;;;;;6.73;3.90;;;;;;;;;;6068627;29;20277;-77
2022/04/16 02:41:02;;;;;;;5.17;3.43;;;;;;;;;;6072153;29;20241;-76
2022/04/16 02:48:02;;;;;;;3.70;2.80;;;;;;;;;;6065804;29;20240;-77
2022/04/16 02:51:23;;;;;;;4.30;3.90;;;;;;;;;;6068994;29;20269;-76
2022/04/16 02:54:43;;;;;;;5.63;3.40;;;;;;;;;;6067323;29;20233;-75
2022/04/16 02:58:03;;;;;;;4.70;3.17;;;;;;;;;;6065165;29;20244;-77
2022/04/16 03:01:24;;;;;;;4.30;3.60;;;;;;;;;;6072059;29;20229;-76
2022/04/16 03:04:46;;;;;;;5.40;4.20;;;;;;;;;;6064055;29;20246;-76
2022/04/16 03:08:07;;;;;;;5.30;3.50;;;;;;;;;;6087957;29;20934;-76
2022/04/16 03:11:27;;;;;;;4.07;3.30;;;;;;;;;;6095585;29;20228;-77
2022/04/16 03:18:26;;;;;;;3.30;3.00;;;;;;;;;;6066779;29;20221;-76
2022/04/16 03:21:48;;;;;;;4.90;3.70;;;;;;;;;;6067292;29;20289;-77
2022/04/16 03:25:09;;;;;;;6.10;4.47;;;;;;;;;;6066026;29;20241;-75
2022/04/16 03:28:31;;;;;;;4.67;3.20;;;;;;;;;;6068720;29;20248;-77
2022/04/16 03:31:52;;;;;;;6.17;5.53;;;;;;;;;;6065150;29;20908;-77
2022/04/16 03:35:13;;;;;;;6.30;4.27;;;;;;;;;;6066968;29;20237;-76
2022/04/16 03:38:34;;;;;;;6.30;3.90;;;;;;;;;;6080871;29;20248;-77
2022/04/16 03:41:55;;;;;;;5.27;4.80;;;;;;;;;;6087168;29;20315;-78
2022/04/16 03:45:16;;;;;;;6.23;4.10;;;;;;;;;;6068227;29;20237;-77
2022/04/16 03:48:37;;;;;;;3.77;3.00;;;;;;;;;;6068293;29;20245;-77
2022/04/16 03:51:57;;;;;;;4.07;2.90;;;;;;;;;;6065852;29;20632;-77
2022/04/16 04:02:34;;;;;;;7.37;3.73;;;;;;;;;;6064926;29;20233;-77
2022/04/16 04:05:55;;;;;;;4.00;3.53;;;;;;;;;;6082241;29;20233;-77
2022/04/16 04:09:16;;;;;;;6.13;3.33;;;;;;;;;;6066080;29;20237;-78
2022/04/16 04:12:38;;;;;;;4.77;3.10;;;;;;;;;;6067916;29;20241;-77
2022/04/16 04:15:58;;;;;;;4.50;4.10;;;;;;;;;;6065180;29;20248;-76
2022/04/16 04:19:19;;;;;;;3.80;3.37;;;;;;;;;;6058363;29;20234;-77
2022/04/16 04:22:39;;;;;;;4.90;3.20;;;;;;;;;;6067159;29;20475;-76
2022/04/16 04:25:59;;;;;;;3.23;2.93;;;;;;;;;;6060392;29;20326;-76
2022/04/16 04:29:21;;;;;;;3.60;3.13;;;;;;;;;;6064862;29;20229;-76
2022/04/16 04:32:42;;;;;;;3.83;3.40;;;;;;;;;;6068668;29;20237;-78
2022/04/16 04:36:03;;;;;;;3.33;2.63;;;;;;;;;;6069024;29;20237;-77
2022/04/16 04:39:23;;;;;;;5.70;3.77;;;;;;;;;;6070027;29;20626;-76
2022/04/16 04:42:44;;;;;;;3.40;3.07;;;;;;;;;;6069187;29;20636;-76
2022/04/16 04:46:06;;;;;;;3.47;3.13;;;;;;;;;;6083394;29;20299;-76
2022/04/16 04:49:27;;;;;;;3.57;3.13;;;;;;;;;;6077385;29;20229;-76
2022/04/16 04:52:47;;;;;;;4.53;3.30;;;;;;;;;;6087765;29;20224;-77
2022/04/16 04:56:08;;;;;;;3.37;3.07;;;;;;;;;;6064230;29;20229;-76
2022/04/16 04:59:29;;;;;;;4.43;3.03;;;;;;;;;;6079044;29;20229;-76
2022/04/16 05:02:51;;;;;;;3.97;2.93;;;;;;;;;;6069143;29;20237;-78
2022/04/16 05:06:11;;;;;;;4.27;2.67;;;;;;;;;;6069674;29;20236;-78
2022/04/16 05:09:32;;;;;;;3.73;2.70;;;;;;;;;;6082092;29;21453;-79
2022/04/16 05:12:56;;;;;;;5.23;3.57;;;;;;;;;;6097558;29;20596;-79
2022/04/16 05:16:17;;;;;;;4.77;3.20;;;;;;;;;;6057459;29;20237;-78
2022/04/16 05:19:39;;;;;;;3.43;2.77;;;;;;;;;;6071193;29;20233;-78
2022/04/16 05:22:59;;;;;;;3.53;2.47;;;;;;;;;;6085239;29;20563;-77
2022/04/16 05:26:20;;;;;;;4.60;2.30;;;;;;;;;;6095262;29;20543;-78
2022/04/16 05:29:56;;;;;;;5.47;3.43;;;;;;;;;;6077814;29;20643;-78
2022/04/16 05:36:55;;;;;;;2.50;2.30;;;;;;;;;;6078154;29;20233;-78
2022/04/16 05:40:16;;;;;;;4.37;2.90;;;;;;;;;;6096227;29;20324;-79
2022/04/16 05:43:36;;;;;;;3.00;2.27;;;;;;;;;;6061111;29;21118;-76
2022/04/16 05:46:57;;;;;;;2.07;1.90;;;;;;;;;;6075393;29;20241;-76
2022/04/16 05:50:18;;;;;;;4.27;3.83;;;;;;;;;;6091424;29;20801;-77
2022/04/16 05:53:40;;;;;;;9.97;8.97;;;;;;;;;;6082037;29;20525;-77
2022/04/16 05:57:01;;;;;;;3.50;2.87;;;;;;;;;;6075240;29;20752;-78
2022/04/16 06:00:22;;;;;;;4.07;2.43;;;;;;;;;;6069575;29;20819;-77
2022/04/16 06:03:43;;;;;;;2.00;1.90;;;;;;;;;;6073149;29;20592;-76
2022/04/16 06:07:03;;;;;;;5.20;3.43;;;;;;;;;;6090180;29;20235;-77
2022/04/16 06:10:25;;;;;;;4.03;3.40;;;;;;;;;;6080359;29;20679;-77
2022/04/16 06:13:45;;;;;;;2.87;1.77;;;;;;;;;;6069356;29;20569;-77
2022/04/16 06:17:06;;;;;;;1.97;1.80;;;;;;;;;;6065589;29;20574;-78
2022/04/16 06:20:27;;;;;;;1.73;1.63;;;;;;;;;;6078725;29;20233;-76
2022/04/16 06:23:47;;;;;;;1.60;1.50;;;;;;;;;;6068142;29;20502;-77
2022/04/16 06:27:09;;;;;;;2.50;2.30;;;;;;;;;;6064079;29;20249;-78
2022/04/16 06:30:29;;;;;;;3.93;2.23;;;;;;;;;;6077887;29;20319;-78
2022/04/16 06:33:50;;;;;;;4.93;2.10;;;;;;;;;;6070242;29;20249;-78
2022/04/16 06:37:11;;;;;;;2.60;2.13;;;;;;;;;;6068485;29;20237;-78
2022/04/16 06:40:31;;;;;;;2.10;1.90;;;;;;;;;;6077542;29;20306;-77
2022/04/16 06:43:53;;;;;;;2.13;1.90;;;;;;;;;;6062363;29;20328;-78
2022/04/16 06:47:15;;;;;;;2.63;2.43;;;;;;;;;;6076707;29;20230;-77
2022/04/16 06:50:36;;;;;;;3.30;1.70;;;;;;;;;;6075119;29;20242;-77
2022/04/16 06:53:56;;;;;;;2.80;1.67;;;;;;;;;;6069314;29;20338;-76
2022/04/16 06:57:17;;;;;;;2.93;1.60;;;;;;;;;;6067451;29;20324;-77
2022/04/16 07:00:39;;;;;;;1.60;1.10;;;;;;;;;;6071270;29;20511;-76
2022/04/16 07:04:00;;;;;;;1.50;1.37;;;;;;;;;;6103182;29;20236;-77
2022/04/16 07:07:20;;;;;;;3.67;2.10;;;;;;;;;;6075133;29;20593;-78
2022/04/16 07:10:41;;;;;;;3.77;1.50;;;;;;;;;;6068217;29;20830;-78
2022/04/16 07:14:02;;;;;;;1.80;1.20;;;;;;;;;;6069754;29;20232;-78
2022/04/16 07:17:24;;;;;;;1.47;1.37;;;;;;;;;;6089432;29;20236;-78
2022/04/16 07:20:45;;;;;;;1.57;1.47;;;;;;;;;;6080502;29;20245;-78
2022/04/16 07:24:05;;;;;;;1.73;1.63;;;;;;;;;;6087187;29;20331;-78
2022/04/16 07:27:26;;;;;;;1.10;1.00;;;;;;;;;;6072525;29;20229;-78
2022/04/16 07:30:47;;;;;;;1.50;1.40;;;;;;;;;;6090717;29;20237;-78
2022/04/16 07:34:08;;;;;;;2.20;2.00;;;;;;;;;;6095362;29;20239;-78
2022/04/16 07:37:29;;;;;;;3.03;2.00;;;;;;;;;;6077368;29;20241;-78
2022/04/16 07:40:50;;;;;;;1.30;1.30;;;;;;;;;;6092396;29;20244;-77
2022/04/16 07:44:10;;;;;;;3.23;1.77;;;;;;;;;;6083956;29;20308;-78
2022/04/16 07:47:31;;;;;;;2.37;1.40;;;;;;;;;;6084750;29;20225;-79
2022/04/16 07:50:53;;;;;;;1.77;1.67;;;;;;;;;;6080068;29;20241;-78
2022/04/16 07:54:14;;;;;;;2.00;1.80;;;;;;;;;;6060298;29;20237;-78
2022/04/16 07:57:35;;;;;;;2.87;2.10;;;;;;;;;;6079541;29;20248;-78
2022/04/16 08:00:55;;;;;;;1.77;1.40;;;;;;;;;;6084798;29;20233;-78
2022/04/16 08:04:16;;;;;;;2.40;2.20;;;;;;;;;;6068666;29;20233;-78
2022/04/16 08:07:37;;;;;;;1.70;1.37;;;;;;;;;;6073791;29;20237;-78
2022/04/16 08:10:58;;;;;;;31.00;27.83;;;;;;;;;;6071730;29;20278;-78
2022/04/16 08:14:20;;;;;;;4.80;4.20;;;;;;;;;;6070524;29;20229;-78
2022/04/16 08:17:41;;;;;;;1.37;1.00;;;;;;;;;;6081592;29;20738;-77
2022/04/16 08:21:01;;;;;;;1.70;1.00;;;;;;;;;;6074086;29;20237;-78
2022/04/16 08:24:38;;;;;;;3.10;2.67;;;;;;;;;;6099515;29;20232;-78
2022/04/16 08:27:59;;;;;;;1.20;1.10;;;;;;;;;;6089048;29;20604;-78
2022/04/16 08:31:20;;;;;;;1.40;1.30;;;;;;;;;;6079965;29;20242;-78
2022/04/16 08:34:40;;;;;;;1.83;1.27;;;;;;;;;;6073600;29;20585;-77
2022/04/16 08:38:01;;;;;;;2.73;1.83;;;;;;;;;;6066116;29;20546;-78
2022/04/16 08:41:25;;;;;;;1.53;0.90;;;;;;;;;;6063469;29;20234;-78
2022/04/16 08:44:46;;;;;;;1.17;1.10;;;;;;;;;;6074254;29;20233;-78
2022/04/16 08:48:07;;;;;;;2.13;1.20;;;;;;;;;;6085577;29;20241;-78
2022/04/16 08:51:28;;;;;;;1.80;1.57;;;;;;;;;;6096040;29;20240;-77
2022/04/16 08:54:49;;;;;;;2.13;0.93;;;;;;;;;;6103651;29;20276;-78
2022/04/16 08:58:11;;;;;;;1.53;1.37;;;;;;;;;;6081516;29;20237;-78
2022/04/16 09:01:32;;;;;;;1.60;1.50;;;;;;;;;;6068863;29;20225;-78
2022/04/16 09:05:01;;;;;;;1.97;1.77;;;;;;;;;;6081413;29;20225;-78
2022/04/16 09:08:27;;;;;;;1.10;1.00;;;;;;;;;;6062408;29;20236;-78
2022/04/16 09:11:49;;;;;;;1.23;1.10;;;;;;;;;;6063377;29;20246;-77
2022/04/16 09:15:11;;;;;;;1.97;1.57;;;;;;;;;;6062924;29;20241;-77
2022/04/16 09:18:31;;;;;;;1.60;1.50;;;;;;;;;;6082415;29;20232;-76
2022/04/16 09:21:52;;;;;;;1.40;1.30;;;;;;;;;;6074254;29;20233;-76
2022/04/16 09:25:16;;;;;;;1.70;1.47;;;;;;;;;;6072183;29;20272;-77
2022/04/16 09:28:43;;;;;;;2.27;1.70;;;;;;;;;;6072773;29;20241;-77
2022/04/16 09:32:06;;;;;;;2.57;1.40;;;;;;;;;;6082947;29;20508;-77
2022/04/16 09:35:28;;;;;;;1.50;1.40;;;;;;;;;;6066451;29;20728;-75
2022/04/16 09:38:49;;;;;;;2.20;1.20;;;;;;;;;;6104725;28;20747;-76
2022/04/16 09:42:09;;;;;;;2.57;1.30;;;;;;;;;;6100684;29;20663;-77
2022/04/16 09:45:30;;;;;;;1.07;0.83;;;;;;;;;;6074079;29;20672;-77
2022/04/16 09:48:52;;;;;;;1.37;1.00;;;;;;;;;;6063963;29;20801;-77
2022/04/16 09:52:13;;;;;;;1.27;1.10;;;;;;;;;;6095270;29;20233;-77
2022/04/16 09:55:34;;;;;;;1.83;1.27;;;;;;;;;;6106060;29;20502;-77
2022/04/16 09:58:56;;;;;;;0.93;0.93;;;;;;;;;;6073842;29;20238;-77
2022/04/16 10:02:17;;;;;;;1.20;1.10;;;;;;;;;;6092665;29;20502;-78
2022/04/16 10:05:39;;;;;;;2.27;1.80;;;;;;;;;;6078209;29;20622;-77
2022/04/16 10:09:03;;;;;;;2.10;0.90;;;;;;;;;;6090063;29;20237;-77
2022/04/16 10:16:13;;;;;;;2.33;1.73;;;;;;;;;;6067869;29;20226;-77
2022/04/16 10:19:40;;;;;;;3.30;1.30;;;;;;;;;;6086283;29;20327;-77
2022/04/16 10:23:03;;;;;;;2.40;1.37;;;;;;;;;;6089542;29;20710;-77
2022/04/16 10:26:24;;;;;;;2.17;1.40;;;;;;;;;;6097022;29;20591;-79
2022/04/16 10:29:47;;;;;;;3.23;1.73;;;;;;;;;;6078919;29;20233;-77
2022/04/16 10:33:18;;;;;;;1.77;1.10;;;;;;;;;;6080753;29;20263;-78
2022/04/16 10:36:41;;;;;;;4.57;1.63;;;;;;;;;;6090413;29;20241;-78
2022/04/16 10:40:03;;;;;;;1.10;0.83;;;;;;;;;;6072030;29;20224;-77
2022/04/16 10:43:26;;;;;;;1.63;1.30;;;;;;;;;;6084983;29;20236;-78
2022/04/16 10:46:47;;;;;;;1.77;1.20;;;;;;;;;;6091368;29;20244;-78
2022/04/16 10:50:08;;;;;;;1.70;1.60;;;;;;;;;;6088996;29;20244;-76
2022/04/16 10:53:30;;;;;;;2.13;1.93;;;;;;;;;;6071342;29;20257;-77
2022/04/16 10:56:53;;;;;;;2.43;1.47;;;;;;;;;;6074279;29;20506;-77
2022/04/16 11:00:14;;;;;;;3.17;1.60;;;;;;;;;;6068110;29;20229;-78
2022/04/16 11:03:42;;;;;;;1.00;1.00;;;;;;;;;;6066236;29;20241;-76
2022/04/16 11:07:07;;;;;;;1.30;1.20;;;;;;;;;;6068932;29;20285;-77
2022/04/16 11:10:28;;;;;;;1.17;1.07;;;;;;;;;;6071279;29;20245;-77
2022/04/16 11:13:50;;;;;;;1.77;1.30;;;;;;;;;;6064400;29;20238;-77
2022/04/16 11:17:14;;;;;;;1.47;1.20;;;;;;;;;;6075036;29;20248;-76
2022/04/16 11:20:34;;;;;;;1.80;1.50;;;;;;;;;;6101491;29;20225;-77
2022/04/16 11:23:54;;;;;;;1.20;1.10;;;;;;;;;;6080438;29;20236;-77
2022/04/16 11:34:50;;;;;;;1.77;1.27;;;;;;;;;;5985766;29;20276;-77
2022/04/16 11:38:11;;;;;;;2.03;1.00;;;;;;;;;;6015648;29;20253;-76
2022/04/16 11:41:33;;;;;;;1.77;1.53;;;;;;;;;;6064973;29;20316;-77
2022/04/16 11:44:54;;;;;;;2.13;1.10;;;;;;;;;;6061704;29;20262;-77
2022/04/16 11:48:16;;;;;;;2.97;1.43;;;;;;;;;;6061681;29;20305;-77
2022/04/16 11:51:38;;;;;;;1.42;1.25;;;;;;;;;;6071672;29;20715;-77
2022/04/16 11:55:05;;;;;;;1.00;0.98;;;;;;;;;;6071148;29;20237;-77
2022/04/16 11:58:27;;;;;;;1.05;0.98;;;;;;;;;;6068551;29;20241;-77
2022/04/16 12:01:56;;;;;;;1.55;1.15;;;;;;;;;;6066983;29;20332;-76
2022/04/16 12:05:18;;;;;;;0.93;0.93;;;;;;;;;;6057718;29;20585;-77
2022/04/16 12:08:40;;;;;;;0.85;0.80;;;;;;;;;;6065256;29;20233;-75
2022/04/16 12:12:03;;;;;;;1.65;1.02;;;;;;;;;;6063425;29;20245;-76
2022/04/16 12:15:24;;;;;;;0.75;0.65;;;;;;;;;;6074164;29;20292;-77
2022/04/16 12:18:46;;;;;;;0.93;0.93;;;;;;;;;;6083195;29;20220;-74
2022/04/16 12:22:15;;;;;;;0.82;0.75;;;;;;;;;;6084365;29;20607;-76
2022/04/16 12:25:36;;;;;;;2.70;1.48;;;;;;;;;;6063697;29;20240;-76
2022/04/16 12:28:56;;;;;;;1.13;1.00;;;;;;;;;;6068401;29;20241;-75
2022/04/16 12:32:24;;;;;;;1.95;1.23;;;;;;;;;;6066931;29;20238;-76
2022/04/16 12:35:45;;;;;;;1.30;1.20;;;;;;;;;;6067284;29;20371;-76
2022/04/16 12:39:07;;;;;;;1.58;1.48;;;;;;;;;;6067348;29;20241;-76
2022/04/16 12:42:28;;;;;;;1.63;1.17;;;;;;;;;;6067897;29;20245;-76
2022/04/16 12:45:49;;;;;;;1.30;1.20;;;;;;;;;;6086980;29;20233;-76
2022/04/16 12:49:09;;;;;;;1.25;1.15;;;;;;;;;;6064389;29;21185;-76
2022/04/16 12:52:29;;;;;;;1.40;1.30;;;;;;;;;;6062325;29;20539;-75
2022/04/16 12:55:51;;;;;;;2.15;1.10;;;;;;;;;;6063414;29;20513;-76
2022/04/16 12:59:12;;;;;;;1.80;1.33;;;;;;;;;;6060987;29;20316;-75
2022/04/16 13:02:33;;;;;;;1.35;1.25;;;;;;;;;;6064977;29;20299;-76
2022/04/16 13:05:54;;;;;;;2.03;1.48;;;;;;;;;;6069838;29;20233;-76
2022/04/16 13:09:14;;;;;;;1.20;1.20;;;;;;;;;;6063747;29;20238;-75
2022/04/16 13:12:37;;;;;;;2.75;1.60;;;;;;;;;;6065206;29;20509;-75
2022/04/16 13:15:58;;;;;;;1.95;1.85;;;;;;;;;;6061756;29;20265;-75
2022/04/16 13:19:18;;;;;;;2.08;1.83;;;;;;;;;;6091854;29;20259;-75
2022/04/16 13:22:39;;;;;;;1.92;1.73;;;;;;;;;;6070314;29;20292;-75
2022/04/16 13:25:59;;;;;;;1.85;1.75;;;;;;;;;;6066537;29;20229;-75
2022/04/16 13:29:22;;;;;;;2.10;2.00;;;;;;;;;;6068674;29;20240;-75
2022/04/16 13:32:42;;;;;;;2.92;1.98;;;;;;;;;;6063115;29;20308;-74
2022/04/16 13:36:03;;;;;;;1.90;1.80;;;;;;;;;;6069015;29;20232;-76
2022/04/16 13:43:02;;;;;;;1.70;1.60;;;;;;;;;;6060086;29;20233;-74
2022/04/16 13:46:24;;;;;;;2.53;2.05;;;;;;;;;;6065248;29;20241;-76
2022/04/16 13:49:44;;;;;;;1.90;1.80;;;;;;;;;;6069096;29;20515;-75
2022/04/16 13:53:05;;;;;;;2.22;1.90;;;;;;;;;;6083808;29;20265;-74
2022/04/16 13:56:25;;;;;;;2.20;1.90;;;;;;;;;;6057428;29;20229;-76
2022/04/16 13:59:46;;;;;;;2.22;2.03;;;;;;;;;;6059048;29;20241;-76
2022/04/16 14:03:08;;;;;;;2.05;1.90;;;;;;;;;;6065257;29;20313;-75
2022/04/16 14:06:29;;;;;;;3.13;1.88;;;;;;;;;;6065807;29;20237;-76
2022/04/16 14:09:50;;;;;;;1.50;1.40;;;;;;;;;;6061693;29;20619;-77
2022/04/16 14:13:11;;;;;;;2.85;2.03;;;;;;;;;;6064020;29;20237;-77
2022/04/16 14:16:33;;;;;;;1.85;1.65;;;;;;;;;;6071637;29;20288;-76
2022/04/16 14:19:55;;;;;;;2.38;2.17;;;;;;;;;;6077536;29;20238;-76
2022/04/16 14:23:16;;;;;;;3.50;2.33;;;;;;;;;;6071581;29;20221;-76
2022/04/16 14:26:39;;;;;;;2.03;1.92;;;;;;;;;;6066033;29;20229;-76
2022/04/16 14:29:59;;;;;;;2.10;1.90;;;;;;;;;;6073413;29;20230;-75
2022/04/16 14:33:19;;;;;;;2.90;2.50;;;;;;;;;;6086311;29;20508;-76
2022/04/16 14:36:41;;;;;;;2.47;2.22;;;;;;;;;;6068716;29;20237;-76
2022/04/16 14:40:02;;;;;;;2.65;2.45;;;;;;;;;;6069617;29;20241;-75
2022/04/16 14:43:22;;;;;;;2.67;2.47;;;;;;;;;;6069221;29;20233;-76
2022/04/16 14:46:43;;;;;;;2.50;2.33;;;;;;;;;;6069426;29;20229;-76
2022/04/16 14:50:04;;;;;;;3.97;2.63;;;;;;;;;;6067208;29;20230;-76
2022/04/16 14:53:26;;;;;;;2.85;2.40;;;;;;;;;;6070461;29;20593;-76
2022/04/16 14:56:46;;;;;;;2.40;2.20;;;;;;;;;;6076371;29;20245;-76
2022/04/16 15:00:07;;;;;;;2.47;2.28;;;;;;;;;;6064922;29;20249;-75
2022/04/16 15:03:28;;;;;;;3.33;3.03;;;;;;;;;;6072225;29;20522;-76
2022/04/16 15:06:49;;;;;;;2.65;2.42;;;;;;;;;;6069412;29;20233;-76
2022/04/16 15:10:11;;;;;;;3.30;3.10;;;;;;;;;;6066069;29;20230;-75
2022/04/16 15:13:31;;;;;;;3.15;2.90;;;;;;;;;;6069569;29;21186;-75
2022/04/16 15:16:53;;;;;;;3.42;2.13;;;;;;;;;;6068523;29;20839;-75
2022/04/16 15:20:14;;;;;;;3.00;2.80;;;;;;;;;;6082592;29;20500;-76
2022/04/16 15:23:35;;;;;;;2.72;2.08;;;;;;;;;;6065633;29;20237;-76
2022/04/16 15:26:57;;;;;;;3.05;2.75;;;;;;;;;;6070892;29;20560;-76
2022/04/16 15:30:18;;;;;;;3.15;2.90;;;;;;;;;;6069476;29;20233;-76
2022/04/16 15:33:38;;;;;;;3.15;2.83;;;;;;;;;;6081461;29;20245;-76
2022/04/16 15:36:59;;;;;;;2.80;2.60;;;;;;;;;;6081170;29;20229;-76
2022/04/16 15:40:22;;;;;;;2.10;1.90;;;;;;;;;;6068600;29;20256;-75
2022/04/16 15:43:44;;;;;;;3.45;3.15;;;;;;;;;;6077403;29;20620;-75
2022/04/16 15:47:04;;;;;;;2.70;2.40;;;;;;;;;;6066095;29;20308;-76
2022/04/16 15:50:25;;;;;;;2.33;2.17;;;;;;;;;;6066257;29;20236;-76
2022/04/16 15:53:47;;;;;;;3.42;3.22;;;;;;;;;;6072686;29;20241;-75
2022/04/16 15:57:09;;;;;;;3.33;2.63;;;;;;;;;;6060670;29;20862;-75
2022/04/16 16:00:31;;;;;;;2.90;2.70;;;;;;;;;;6061552;29;20242;-76
2022/04/16 16:03:51;;;;;;;3.50;3.25;;;;;;;;;;6072166;29;20225;-77
2022/04/16 16:07:12;;;;;;;3.28;3.03;;;;;;;;;;6058376;29;20511;-76
2022/04/16 16:10:32;;;;;;;3.58;3.28;;;;;;;;;;6068705;29;20619;-77
2022/04/16 16:13:53;;;;;;;2.95;2.72;;;;;;;;;;6064369;29;20261;-76
2022/04/16 16:17:15;;;;;;;2.97;2.63;;;;;;;;;;6082921;29;20229;-77
2022/04/16 16:20:35;;;;;;;3.67;2.97;;;;;;;;;;6105744;29;20232;-77
2022/04/16 16:23:55;;;;;;;3.20;2.50;;;;;;;;;;6068300;29;20241;-76
2022/04/16 16:27:16;;;;;;;2.88;2.67;;;;;;;;;;6089043;29;20880;-77
2022/04/16 16:30:38;;;;;;;3.63;3.33;;;;;;;;;;6082464;29;20229;-75
2022/04/16 16:34:00;;;;;;;3.63;3.33;;;;;;;;;;6067703;29;20328;-76
2022/04/16 16:37:21;;;;;;;3.83;3.53;;;;;;;;;;6061298;29;20226;-76
2022/04/16 16:40:42;;;;;;;4.07;3.78;;;;;;;;;;6060114;29;20245;-76
2022/04/16 16:44:03;;;;;;;2.80;2.45;;;;;;;;;;6057557;29;21110;-76
2022/04/16 16:47:23;;;;;;;3.13;2.92;;;;;;;;;;6076514;29;20237;-76
2022/04/16 16:50:45;;;;;;;3.13;2.60;;;;;;;;;;6063843;29;20255;-78
2022/04/16 16:54:08;;;;;;;3.35;2.50;;;;;;;;;;6062468;29;20245;-76
2022/04/16 16:57:29;;;;;;;3.58;3.28;;;;;;;;;;6062634;29;20244;-75
2022/04/16 17:00:49;;;;;;;5.85;5.35;;;;;;;;;;6068259;29;20813;-76
2022/04/16 17:07:50;;;;;;;11.55;9.27;;;;;;;;;;6064942;29;20595;-75
2022/04/16 17:11:10;;;;;;;7.75;7.07;;;;;;;;;;6080499;29;20335;-76
2022/04/16 17:21:47;;;;;;;5.85;5.35;;;;;;;;;;6063466;29;20675;-78
2022/04/16 17:25:10;;;;;;;6.38;5.82;;;;;;;;;;6067706;29;20256;-77
2022/04/16 17:28:31;;;;;;;6.13;5.53;;;;;;;;;;6070114;29;20636;-76
2022/04/16 17:31:52;;;;;;;7.40;6.75;;;;;;;;;;6078330;29;20237;-76
2022/04/16 17:35:13;;;;;;;7.45;6.75;;;;;;;;;;6067986;29;20241;-76
2022/04/16 17:38:34;;;;;;;7.28;6.57;;;;;;;;;;6064512;29;20317;-77
2022/04/16 17:42:09;;;;;;;6.60;5.90;;;;;;;;;;6062722;29;20229;-76
2022/04/16 17:45:30;;;;;;;6.47;5.88;;;;;;;;;;6061304;29;20238;-76
2022/04/16 17:48:51;;;;;;;5.17;4.67;;;;;;;;;;6074041;29;20237;-77
2022/04/16 17:52:12;;;;;;;4.87;4.43;;;;;;;;;;6066377;29;20236;-77
2022/04/16 17:55:34;;;;;;;4.80;4.43;;;;;;;;;;6071083;29;20241;-77
2022/04/16 17:58:56;;;;;;;6.40;5.90;;;;;;;;;;6072809;29;20695;-76
2022/04/16 18:02:17;;;;;;;6.40;5.90;;;;;;;;;;6078503;29;20260;-75
2022/04/16 18:05:38;;;;;;;6.37;5.03;;;;;;;;;;6075732;29;20233;-77
2022/04/16 18:08:58;;;;;;;6.17;5.60;;;;;;;;;;6066893;29;20569;-76
2022/04/16 18:12:18;;;;;;;5.73;5.23;;;;;;;;;;6095629;29;20228;-77
2022/04/16 18:15:40;;;;;;;6.97;6.37;;;;;;;;;;6069331;29;20264;-77
2022/04/16 18:19:01;;;;;;;7.60;6.90;;;;;;;;;;6087187;29;20232;-77
2022/04/16 18:22:22;;;;;;;8.70;7.90;;;;;;;;;;6085046;29;20241;-78
2022/04/16 18:25:42;;;;;;;8.67;7.77;;;;;;;;;;6074879;29;20297;-77
2022/04/16 18:29:04;;;;;;;11.70;10.60;;;;;;;;;;6070943;29;20328;-78
2022/04/16 18:32:26;;;;;;;11.07;10.03;;;;;;;;;;6071017;29;20615;-76
2022/04/16 18:35:47;;;;;;;11.93;10.70;;;;;;;;;;6082641;29;20272;-77
2022/04/16 18:39:08;;;;;;;27.07;24.37;;;;;;;;;;6086711;29;20236;-77
2022/04/16 18:42:28;;;;;;;16.30;14.73;;;;;;;;;;6088492;29;20229;-76
2022/04/16 18:45:49;;;;;;;18.77;16.87;;;;;;;;;;6069288;29;20240;-77
2022/04/16 18:49:11;;;;;;;15.23;13.70;;;;;;;;;;6067805;29;20505;-78
2022/04/16 18:52:32;;;;;;;11.23;10.13;;;;;;;;;;6074421;29;20320;-77
2022/04/16 18:55:55;;;;;;;11.23;10.13;;;;;;;;;;6070188;29;20229;-78
2022/04/16 18:59:16;;;;;;;15.27;13.63;;;;;;;;;;6064597;29;20323;-77
2022/04/16 19:09:53;;;;;;;15.40;13.87;;;;;;;;;;6067644;29;20233;-77
2022/04/16 19:13:14;;;;;;;13.87;12.57;;;;;;;;;;6061984;29;20316;-77
2022/04/16 19:16:34;;;;;;;15.10;13.50;;;;;;;;;;6091018;29;20232;-76
2022/04/16 19:19:55;;;;;;;15.50;13.90;;;;;;;;;;6095473;29;20228;-78
2022/04/16 19:23:17;;;;;;;15.47;13.87;;;;;;;;;;6097729;29;20711;-78
2022/04/16 19:26:39;;;;;;;14.30;12.80;;;;;;;;;;6077924;29;20237;-77
2022/04/16 19:29:59;;;;;;;13.07;11.77;;;;;;;;;;6067773;29;20237;-78
2022/04/16 19:33:19;;;;;;;21.10;19.03;;;;;;;;;;6066215;29;20228;-77
2022/04/16 19:36:40;;;;;;;17.03;15.23;;;;;;;;;;6069327;29;20230;-78
2022/04/16 19:40:02;;;;;;;20.70;18.00;;;;;;;;;;6067943;29;20242;-78
2022/04/16 19:43:23;;;;;;;21.30;19.10;;;;;;;;;;6061677;29;20242;-78
2022/04/16 19:46:44;;;;;;;85.07;76.20;;;;;;;;;;6074458;29;20321;-78
2022/04/16 19:50:06;;;;;;;22.40;20.10;;;;;;;;;;6065102;29;20237;-78
2022/04/16 19:53:27;;;;;;;19.50;17.50;;;;;;;;;;6070557;29;20875;-78
2022/04/16 19:56:50;;;;;;;14.87;13.57;;;;;;;;;;6057635;29;20662;-78
2022/04/16 20:00:12;;;;;;;23.60;21.10;;;;;;;;;;6071640;29;20220;-77
2022/04/16 20:03:33;;;;;;;34.33;30.40;;;;;;;;;;6075547;29;20256;-76
2022/04/16 20:06:53;;;;;;;31.83;22.50;;;;;;;;;;6072483;29;20242;-78
2022/04/16 20:13:55;;;;;;;32.83;27.53;;;;;;;;;;6076900;29;20607;-76
2022/04/16 20:17:16;;;;;;;27.90;22.13;;;;;;;;;;6071119;29;20237;-78
2022/04/16 20:20:36;;;;;;;25.83;23.13;;;;;;;;;;6068351;29;20245;-77
2022/04/16 20:23:58;;;;;;;27.13;24.43;;;;;;;;;;6064310;29;20252;-77
2022/04/16 20:27:18;;;;;;;16.87;15.13;;;;;;;;;;6074381;29;20249;-77
2022/04/16 20:30:40;;;;;;;16.23;14.53;;;;;;;;;;6076210;29;20236;-78
2022/04/16 20:34:00;;;;;;;26.57;23.83;;;;;;;;;;6070232;29;20241;-77
2022/04/16 20:37:21;;;;;;;46.87;41.20;;;;;;;;;;6055933;29;20230;-77
2022/04/16 20:48:13;;;;;;;56.43;50.43;;;;;;;;;;6085337;29;20232;-77
2022/04/16 20:55:12;;;;;;;23.83;21.60;;;;;;;;;;6094662;29;20722;-77
2022/04/16 20:58:33;;;;;;;16.33;14.83;;;;;;;;;;6085147;29;20521;-77
2022/04/16 21:01:53;;;;;;;15.00;13.57;;;;;;;;;;6065008;29;20347;-77
2022/04/16 21:05:15;;;;;;;15.00;13.53;;;;;;;;;;6065190;29;20320;-77
2022/04/16 21:08:36;;;;;;;16.20;14.70;;;;;;;;;;6067585;29;20580;-77
2022/04/16 21:11:56;;;;;;;14.80;13.30;;;;;;;;;;6067104;29;20253;-77